sensor_id;sensor_type;location;lat;lon;timestamp;P1;durP1;ratioP1;P2;durP2;ratioP2
19507;SDS011;40157;42.566;27.526;2023-02-28T00:00:50;9.90;;;5.17;;
19507;SDS011;40157;42.566;27.526;2023-02-28T00:02:50;10.00;;;4.53;;
19507;SDS011;40157;42.566;27.526;2023-02-28T00:04:50;11.27;;;4.47;;
19507;SDS011;40157;42.566;27.526;2023-02-28T00:06:52;16.00;;;4.37;;
19507;SDS011;40157;42.566;27.526;2023-02-28T00:08:53;8.57;;;4.50;;
19507;SDS011;40157;42.566;27.526;2023-02-28T00:10:54;11.87;;;4.83;;
19507;SDS011;40157;42.566;27.526;2023-02-28T00:12:55;10.03;;;4.17;;
19507;SDS011;40157;42.566;27.526;2023-02-28T00:14:59;6.50;;;3.53;;
19507;SDS011;40157;42.566;27.526;2023-02-28T00:16:59;6.50;;;4.03;;
19507;SDS011;40157;42.566;27.526;2023-02-28T00:19:00;8.00;;;4.00;;
19507;SDS011;40157;42.566;27.526;2023-02-28T00:21:00;8.13;;;4.00;;
19507;SDS011;40157;42.566;27.526;2023-02-28T00:23:01;9.40;;;4.80;;
19507;SDS011;40157;42.566;27.526;2023-02-28T00:25:07;10.80;;;5.17;;
19507;SDS011;40157;42.566;27.526;2023-02-28T00:27:17;9.07;;;5.13;;
19507;SDS011;40157;42.566;27.526;2023-02-28T00:29:18;8.63;;;4.20;;
19507;SDS011;40157;42.566;27.526;2023-02-28T00:31:18;9.67;;;4.83;;
19507;SDS011;40157;42.566;27.526;2023-02-28T00:33:19;11.07;;;4.77;;
19507;SDS011;40157;42.566;27.526;2023-02-28T00:35:19;8.93;;;5.07;;
19507;SDS011;40157;42.566;27.526;2023-02-28T00:37:20;13.00;;;4.70;;
19507;SDS011;40157;42.566;27.526;2023-02-28T00:39:20;13.43;;;5.13;;
19507;SDS011;40157;42.566;27.526;2023-02-28T00:41:23;7.87;;;4.33;;
19507;SDS011;40157;42.566;27.526;2023-02-28T00:43:23;7.63;;;4.33;;
19507;SDS011;40157;42.566;27.526;2023-02-28T00:45:24;8.27;;;4.50;;
19507;SDS011;40157;42.566;27.526;2023-02-28T00:47:24;10.80;;;4.97;;
19507;SDS011;40157;42.566;27.526;2023-02-28T00:49:25;8.77;;;4.70;;
19507;SDS011;40157;42.566;27.526;2023-02-28T00:51:26;9.63;;;5.23;;
19507;SDS011;40157;42.566;27.526;2023-02-28T00:53:27;8.07;;;4.73;;
19507;SDS011;40157;42.566;27.526;2023-02-28T00:55:28;10.93;;;4.67;;
19507;SDS011;40157;42.566;27.526;2023-02-28T00:57:28;9.67;;;5.10;;
19507;SDS011;40157;42.566;27.526;2023-02-28T00:59:29;10.03;;;5.03;;
19507;SDS011;40157;42.566;27.526;2023-02-28T01:01:32;9.93;;;5.13;;
19507;SDS011;40157;42.566;27.526;2023-02-28T01:03:41;10.43;;;5.90;;
19507;SDS011;40157;42.566;27.526;2023-02-28T01:05:42;8.50;;;5.00;;
19507;SDS011;40157;42.566;27.526;2023-02-28T01:07:43;9.93;;;4.90;;
19507;SDS011;40157;42.566;27.526;2023-02-28T01:09:43;12.30;;;5.30;;
19507;SDS011;40157;42.566;27.526;2023-02-28T01:11:43;8.93;;;4.97;;
19507;SDS011;40157;42.566;27.526;2023-02-28T01:13:45;11.67;;;5.60;;
19507;SDS011;40157;42.566;27.526;2023-02-28T01:15:50;12.27;;;5.67;;
19507;SDS011;40157;42.566;27.526;2023-02-28T01:17:52;10.63;;;4.90;;
19507;SDS011;40157;42.566;27.526;2023-02-28T01:19:53;11.50;;;5.50;;
19507;SDS011;40157;42.566;27.526;2023-02-28T01:21:55;10.27;;;5.60;;
19507;SDS011;40157;42.566;27.526;2023-02-28T01:23:56;12.10;;;5.17;;
19507;SDS011;40157;42.566;27.526;2023-02-28T01:25:59;14.77;;;7.97;;
19507;SDS011;40157;42.566;27.526;2023-02-28T01:28:05;17.67;;;8.37;;
19507;SDS011;40157;42.566;27.526;2023-02-28T01:30:06;28.40;;;12.10;;
19507;SDS011;40157;42.566;27.526;2023-02-28T01:32:08;19.43;;;9.10;;
19507;SDS011;40157;42.566;27.526;2023-02-28T01:34:09;14.23;;;8.00;;
19507;SDS011;40157;42.566;27.526;2023-02-28T01:38:14;19.97;;;8.90;;
19507;SDS011;40157;42.566;27.526;2023-02-28T01:40:15;19.43;;;9.90;;
19507;SDS011;40157;42.566;27.526;2023-02-28T01:42:16;12.70;;;7.17;;
19507;SDS011;40157;42.566;27.526;2023-02-28T01:46:53;13.77;;;7.00;;
19507;SDS011;40157;42.566;27.526;2023-02-28T01:49:11;13.27;;;6.83;;
19507;SDS011;40157;42.566;27.526;2023-02-28T01:51:34;14.50;;;7.57;;
19507;SDS011;40157;42.566;27.526;2023-02-28T01:53:55;51.37;;;20.03;;
19507;SDS011;40157;42.566;27.526;2023-02-28T01:56:00;60.70;;;20.80;;
19507;SDS011;40157;42.566;27.526;2023-02-28T01:58:06;40.00;;;15.63;;
19507;SDS011;40157;42.566;27.526;2023-02-28T02:00:10;22.57;;;9.33;;
19507;SDS011;40157;42.566;27.526;2023-02-28T02:02:14;13.27;;;7.80;;
19507;SDS011;40157;42.566;27.526;2023-02-28T02:04:17;14.17;;;7.90;;
19507;SDS011;40157;42.566;27.526;2023-02-28T02:06:19;12.33;;;7.13;;
19507;SDS011;40157;42.566;27.526;2023-02-28T02:08:21;12.03;;;7.33;;
19507;SDS011;40157;42.566;27.526;2023-02-28T02:10:35;11.43;;;6.90;;
19507;SDS011;40157;42.566;27.526;2023-02-28T02:15:03;25.43;;;12.53;;
19507;SDS011;40157;42.566;27.526;2023-02-28T02:17:25;16.63;;;9.70;;
19507;SDS011;40157;42.566;27.526;2023-02-28T02:24:22;14.53;;;8.40;;
19507;SDS011;40157;42.566;27.526;2023-02-28T02:26:55;16.30;;;8.80;;
19507;SDS011;40157;42.566;27.526;2023-02-28T02:31:17;14.73;;;8.87;;
19507;SDS011;40157;42.566;27.526;2023-02-28T02:33:30;16.37;;;9.33;;
19507;SDS011;40157;42.566;27.526;2023-02-28T02:35:46;15.67;;;8.60;;
19507;SDS011;40157;42.566;27.526;2023-02-28T02:37:50;13.47;;;8.27;;
19507;SDS011;40157;42.566;27.526;2023-02-28T02:42:13;17.73;;;10.00;;
19507;SDS011;40157;42.566;27.526;2023-02-28T02:44:31;26.53;;;12.10;;
19507;SDS011;40157;42.566;27.526;2023-02-28T02:46:41;72.23;;;24.30;;
19507;SDS011;40157;42.566;27.526;2023-02-28T02:48:44;72.37;;;24.40;;
19507;SDS011;40157;42.566;27.526;2023-02-28T02:50:51;125.17;;;41.17;;
19507;SDS011;40157;42.566;27.526;2023-02-28T02:52:55;95.00;;;33.30;;
19507;SDS011;40157;42.566;27.526;2023-02-28T02:55:00;68.03;;;25.20;;
19507;SDS011;40157;42.566;27.526;2023-02-28T02:57:05;31.23;;;14.93;;
19507;SDS011;40157;42.566;27.526;2023-02-28T02:59:11;24.53;;;12.60;;
19507;SDS011;40157;42.566;27.526;2023-02-28T03:01:20;22.47;;;10.43;;
19507;SDS011;40157;42.566;27.526;2023-02-28T03:03:30;24.10;;;11.73;;
19507;SDS011;40157;42.566;27.526;2023-02-28T03:05:34;25.07;;;12.40;;
19507;SDS011;40157;42.566;27.526;2023-02-28T03:07:41;25.40;;;10.90;;
19507;SDS011;40157;42.566;27.526;2023-02-28T03:09:49;17.40;;;9.30;;
19507;SDS011;40157;42.566;27.526;2023-02-28T03:11:54;18.77;;;9.27;;
19507;SDS011;40157;42.566;27.526;2023-02-28T03:23:42;15.03;;;8.83;;
19507;SDS011;40157;42.566;27.526;2023-02-28T03:25:56;14.67;;;8.17;;
19507;SDS011;40157;42.566;27.526;2023-02-28T03:28:16;24.77;;;12.13;;
19507;SDS011;40157;42.566;27.526;2023-02-28T03:30:27;30.37;;;14.53;;
19507;SDS011;40157;42.566;27.526;2023-02-28T03:32:36;31.87;;;14.50;;
19507;SDS011;40157;42.566;27.526;2023-02-28T03:34:46;26.33;;;13.87;;
19507;SDS011;40157;42.566;27.526;2023-02-28T03:36:55;46.70;;;17.00;;
19507;SDS011;40157;42.566;27.526;2023-02-28T03:39:02;51.20;;;19.90;;
19507;SDS011;40157;42.566;27.526;2023-02-28T03:43:22;54.00;;;17.90;;
19507;SDS011;40157;42.566;27.526;2023-02-28T03:45:28;28.83;;;13.07;;
19507;SDS011;40157;42.566;27.526;2023-02-28T03:49:40;35.53;;;16.40;;
19507;SDS011;40157;42.566;27.526;2023-02-28T03:51:54;35.57;;;14.10;;
19507;SDS011;40157;42.566;27.526;2023-02-28T03:53:59;34.37;;;16.03;;
19507;SDS011;40157;42.566;27.526;2023-02-28T03:56:26;28.90;;;13.73;;
19507;SDS011;40157;42.566;27.526;2023-02-28T03:58:51;28.63;;;12.70;;
19507;SDS011;40157;42.566;27.526;2023-02-28T04:01:04;30.90;;;14.30;;
19507;SDS011;40157;42.566;27.526;2023-02-28T04:03:13;23.23;;;11.97;;
19507;SDS011;40157;42.566;27.526;2023-02-28T04:05:13;24.00;;;12.33;;
19507;SDS011;40157;42.566;27.526;2023-02-28T04:07:14;15.47;;;10.00;;
19507;SDS011;40157;42.566;27.526;2023-02-28T04:09:15;18.33;;;10.27;;
19507;SDS011;40157;42.566;27.526;2023-02-28T04:13:19;21.27;;;12.20;;
19507;SDS011;40157;42.566;27.526;2023-02-28T04:15:19;24.13;;;13.23;;
19507;SDS011;40157;42.566;27.526;2023-02-28T04:17:22;19.90;;;10.03;;
19507;SDS011;40157;42.566;27.526;2023-02-28T04:19:23;18.40;;;10.20;;
19507;SDS011;40157;42.566;27.526;2023-02-28T04:21:23;18.53;;;9.30;;
19507;SDS011;40157;42.566;27.526;2023-02-28T04:23:24;18.87;;;10.40;;
19507;SDS011;40157;42.566;27.526;2023-02-28T04:25:24;18.50;;;10.27;;
19507;SDS011;40157;42.566;27.526;2023-02-28T04:27:25;15.33;;;8.63;;
19507;SDS011;40157;42.566;27.526;2023-02-28T04:29:26;13.77;;;8.40;;
19507;SDS011;40157;42.566;27.526;2023-02-28T04:31:28;12.83;;;7.60;;
19507;SDS011;40157;42.566;27.526;2023-02-28T04:33:28;14.90;;;7.90;;
19507;SDS011;40157;42.566;27.526;2023-02-28T04:35:30;17.37;;;8.50;;
19507;SDS011;40157;42.566;27.526;2023-02-28T04:37:30;14.83;;;8.43;;
19507;SDS011;40157;42.566;27.526;2023-02-28T04:39:35;16.23;;;9.33;;
19507;SDS011;40157;42.566;27.526;2023-02-28T04:41:36;15.53;;;9.40;;
19507;SDS011;40157;42.566;27.526;2023-02-28T04:43:37;16.50;;;9.53;;
19507;SDS011;40157;42.566;27.526;2023-02-28T04:45:38;19.03;;;8.93;;
19507;SDS011;40157;42.566;27.526;2023-02-28T04:47:38;19.13;;;10.00;;
19507;SDS011;40157;42.566;27.526;2023-02-28T04:49:38;14.40;;;7.83;;
19507;SDS011;40157;42.566;27.526;2023-02-28T04:51:41;16.70;;;9.57;;
19507;SDS011;40157;42.566;27.526;2023-02-28T04:53:42;16.40;;;9.47;;
19507;SDS011;40157;42.566;27.526;2023-02-28T04:55:43;13.30;;;8.33;;
19507;SDS011;40157;42.566;27.526;2023-02-28T04:57:43;16.47;;;8.50;;
19507;SDS011;40157;42.566;27.526;2023-02-28T04:59:44;18.13;;;9.50;;
19507;SDS011;40157;42.566;27.526;2023-02-28T05:01:45;16.70;;;8.63;;
19507;SDS011;40157;42.566;27.526;2023-02-28T05:03:48;14.80;;;8.90;;
19507;SDS011;40157;42.566;27.526;2023-02-28T05:05:49;16.47;;;8.47;;
19507;SDS011;40157;42.566;27.526;2023-02-28T05:07:50;17.10;;;9.07;;
19507;SDS011;40157;42.566;27.526;2023-02-28T05:09:50;17.37;;;9.23;;
19507;SDS011;40157;42.566;27.526;2023-02-28T05:11:51;12.77;;;8.57;;
19507;SDS011;40157;42.566;27.526;2023-02-28T05:13:52;19.67;;;9.87;;
19507;SDS011;40157;42.566;27.526;2023-02-28T05:15:54;14.23;;;8.50;;
19507;SDS011;40157;42.566;27.526;2023-02-28T05:17:55;15.23;;;8.53;;
19507;SDS011;40157;42.566;27.526;2023-02-28T05:19:55;17.97;;;10.10;;
19507;SDS011;40157;42.566;27.526;2023-02-28T05:21:56;17.23;;;9.60;;
19507;SDS011;40157;42.566;27.526;2023-02-28T05:24:00;17.80;;;9.20;;
19507;SDS011;40157;42.566;27.526;2023-02-28T05:26:03;21.47;;;10.73;;
19507;SDS011;40157;42.566;27.526;2023-02-28T05:28:03;25.93;;;12.30;;
19507;SDS011;40157;42.566;27.526;2023-02-28T05:30:05;22.17;;;9.93;;
19507;SDS011;40157;42.566;27.526;2023-02-28T05:32:11;17.43;;;9.57;;
19507;SDS011;40157;42.566;27.526;2023-02-28T05:34:11;18.10;;;9.33;;
19507;SDS011;40157;42.566;27.526;2023-02-28T05:36:12;14.83;;;8.77;;
19507;SDS011;40157;42.566;27.526;2023-02-28T05:38:13;14.90;;;8.43;;
19507;SDS011;40157;42.566;27.526;2023-02-28T05:40:13;16.67;;;8.90;;
19507;SDS011;40157;42.566;27.526;2023-02-28T05:42:15;16.10;;;8.13;;
19507;SDS011;40157;42.566;27.526;2023-02-28T05:44:16;17.60;;;8.07;;
19507;SDS011;40157;42.566;27.526;2023-02-28T05:46:18;11.67;;;7.33;;
19507;SDS011;40157;42.566;27.526;2023-02-28T05:48:18;14.00;;;7.93;;
19507;SDS011;40157;42.566;27.526;2023-02-28T05:50:18;12.87;;;7.80;;
19507;SDS011;40157;42.566;27.526;2023-02-28T05:52:19;14.07;;;8.60;;
19507;SDS011;40157;42.566;27.526;2023-02-28T05:54:20;13.33;;;7.83;;
19507;SDS011;40157;42.566;27.526;2023-02-28T05:56:20;14.73;;;7.73;;
19507;SDS011;40157;42.566;27.526;2023-02-28T05:58:20;14.37;;;7.47;;
19507;SDS011;40157;42.566;27.526;2023-02-28T06:00:21;15.47;;;8.20;;
19507;SDS011;40157;42.566;27.526;2023-02-28T06:02:22;13.83;;;8.27;;
19507;SDS011;40157;42.566;27.526;2023-02-28T06:04:22;13.17;;;8.00;;
19507;SDS011;40157;42.566;27.526;2023-02-28T06:06:23;11.33;;;7.07;;
19507;SDS011;40157;42.566;27.526;2023-02-28T06:08:23;11.87;;;6.97;;
19507;SDS011;40157;42.566;27.526;2023-02-28T06:10:24;16.23;;;8.30;;
19507;SDS011;40157;42.566;27.526;2023-02-28T06:12:24;16.70;;;8.27;;
19507;SDS011;40157;42.566;27.526;2023-02-28T06:14:25;11.87;;;7.20;;
19507;SDS011;40157;42.566;27.526;2023-02-28T06:16:26;15.23;;;8.00;;
19507;SDS011;40157;42.566;27.526;2023-02-28T06:18:28;12.73;;;7.67;;
19507;SDS011;40157;42.566;27.526;2023-02-28T06:20:28;14.00;;;7.70;;
19507;SDS011;40157;42.566;27.526;2023-02-28T06:22:29;11.83;;;7.60;;
19507;SDS011;40157;42.566;27.526;2023-02-28T06:24:30;14.97;;;7.17;;
19507;SDS011;40157;42.566;27.526;2023-02-28T06:26:31;14.67;;;7.63;;
19507;SDS011;40157;42.566;27.526;2023-02-28T06:28:31;15.37;;;7.30;;
19507;SDS011;40157;42.566;27.526;2023-02-28T06:30:32;12.30;;;7.50;;
19507;SDS011;40157;42.566;27.526;2023-02-28T06:32:33;15.00;;;7.60;;
19507;SDS011;40157;42.566;27.526;2023-02-28T06:34:35;12.27;;;6.40;;
19507;SDS011;40157;42.566;27.526;2023-02-28T06:36:36;11.50;;;6.83;;
19507;SDS011;40157;42.566;27.526;2023-02-28T06:38:38;12.77;;;6.60;;
19507;SDS011;40157;42.566;27.526;2023-02-28T06:40:40;13.77;;;7.00;;
19507;SDS011;40157;42.566;27.526;2023-02-28T06:42:41;11.83;;;6.40;;
19507;SDS011;40157;42.566;27.526;2023-02-28T06:44:41;16.50;;;7.00;;
19507;SDS011;40157;42.566;27.526;2023-02-28T06:46:43;12.73;;;7.30;;
19507;SDS011;40157;42.566;27.526;2023-02-28T06:48:45;10.80;;;6.17;;
19507;SDS011;40157;42.566;27.526;2023-02-28T06:50:47;11.83;;;7.00;;
19507;SDS011;40157;42.566;27.526;2023-02-28T06:52:47;13.30;;;6.73;;
19507;SDS011;40157;42.566;27.526;2023-02-28T06:54:48;10.60;;;6.20;;
19507;SDS011;40157;42.566;27.526;2023-02-28T06:56:59;10.30;;;6.40;;
19507;SDS011;40157;42.566;27.526;2023-02-28T07:01:28;10.30;;;6.37;;
19507;SDS011;40157;42.566;27.526;2023-02-28T07:03:32;11.13;;;6.60;;
19507;SDS011;40157;42.566;27.526;2023-02-28T07:05:35;10.43;;;6.53;;
19507;SDS011;40157;42.566;27.526;2023-02-28T07:07:36;11.03;;;6.57;;
19507;SDS011;40157;42.566;27.526;2023-02-28T07:09:38;10.13;;;6.47;;
19507;SDS011;40157;42.566;27.526;2023-02-28T07:11:39;13.57;;;7.73;;
19507;SDS011;40157;42.566;27.526;2023-02-28T07:13:40;14.83;;;8.50;;
19507;SDS011;40157;42.566;27.526;2023-02-28T07:15:41;11.70;;;7.23;;
19507;SDS011;40157;42.566;27.526;2023-02-28T07:17:41;20.20;;;8.33;;
19507;SDS011;40157;42.566;27.526;2023-02-28T07:19:42;14.47;;;7.77;;
19507;SDS011;40157;42.566;27.526;2023-02-28T07:21:42;13.10;;;7.47;;
19507;SDS011;40157;42.566;27.526;2023-02-28T07:23:43;13.20;;;7.13;;
19507;SDS011;40157;42.566;27.526;2023-02-28T07:25:43;11.37;;;6.83;;
19507;SDS011;40157;42.566;27.526;2023-02-28T07:27:45;12.60;;;6.70;;
19507;SDS011;40157;42.566;27.526;2023-02-28T07:29:45;11.63;;;6.67;;
19507;SDS011;40157;42.566;27.526;2023-02-28T07:31:46;12.20;;;6.23;;
19507;SDS011;40157;42.566;27.526;2023-02-28T07:33:47;13.00;;;6.90;;
19507;SDS011;40157;42.566;27.526;2023-02-28T07:35:47;11.30;;;6.63;;
19507;SDS011;40157;42.566;27.526;2023-02-28T07:37:48;15.97;;;7.17;;
19507;SDS011;40157;42.566;27.526;2023-02-28T07:39:49;13.47;;;7.67;;
19507;SDS011;40157;42.566;27.526;2023-02-28T07:41:49;13.13;;;6.97;;
19507;SDS011;40157;42.566;27.526;2023-02-28T07:43:52;12.77;;;6.57;;
19507;SDS011;40157;42.566;27.526;2023-02-28T07:45:55;11.23;;;7.30;;
19507;SDS011;40157;42.566;27.526;2023-02-28T07:47:55;13.50;;;6.37;;
19507;SDS011;40157;42.566;27.526;2023-02-28T07:49:56;14.17;;;6.80;;
19507;SDS011;40157;42.566;27.526;2023-02-28T07:51:57;16.17;;;7.43;;
19507;SDS011;40157;42.566;27.526;2023-02-28T07:53:57;20.83;;;7.23;;
19507;SDS011;40157;42.566;27.526;2023-02-28T07:55:59;15.67;;;7.47;;
19507;SDS011;40157;42.566;27.526;2023-02-28T07:58:00;14.07;;;7.33;;
19507;SDS011;40157;42.566;27.526;2023-02-28T08:00:02;14.63;;;7.57;;
19507;SDS011;40157;42.566;27.526;2023-02-28T08:02:05;19.13;;;8.73;;
19507;SDS011;40157;42.566;27.526;2023-02-28T08:04:05;12.53;;;7.37;;
19507;SDS011;40157;42.566;27.526;2023-02-28T08:06:07;14.30;;;7.30;;
19507;SDS011;40157;42.566;27.526;2023-02-28T08:08:14;13.67;;;7.10;;
19507;SDS011;40157;42.566;27.526;2023-02-28T08:10:16;17.00;;;8.50;;
19507;SDS011;40157;42.566;27.526;2023-02-28T08:12:17;15.43;;;8.67;;
19507;SDS011;40157;42.566;27.526;2023-02-28T08:14:17;16.60;;;9.00;;
19507;SDS011;40157;42.566;27.526;2023-02-28T08:16:18;20.13;;;8.60;;
19507;SDS011;40157;42.566;27.526;2023-02-28T08:18:22;17.90;;;9.47;;
19507;SDS011;40157;42.566;27.526;2023-02-28T08:20:24;18.00;;;8.77;;
19507;SDS011;40157;42.566;27.526;2023-02-28T08:22:25;18.60;;;8.97;;
19507;SDS011;40157;42.566;27.526;2023-02-28T08:24:26;18.53;;;9.20;;
19507;SDS011;40157;42.566;27.526;2023-02-28T08:26:26;19.67;;;9.43;;
19507;SDS011;40157;42.566;27.526;2023-02-28T08:28:27;18.03;;;9.33;;
19507;SDS011;40157;42.566;27.526;2023-02-28T08:30:27;20.17;;;8.67;;
19507;SDS011;40157;42.566;27.526;2023-02-28T08:32:28;17.57;;;8.67;;
19507;SDS011;40157;42.566;27.526;2023-02-28T08:34:31;20.77;;;9.70;;
19507;SDS011;40157;42.566;27.526;2023-02-28T08:36:32;24.43;;;11.40;;
19507;SDS011;40157;42.566;27.526;2023-02-28T08:38:34;18.90;;;9.03;;
19507;SDS011;40157;42.566;27.526;2023-02-28T08:40:36;15.73;;;8.47;;
19507;SDS011;40157;42.566;27.526;2023-02-28T08:42:36;17.10;;;8.63;;
19507;SDS011;40157;42.566;27.526;2023-02-28T08:44:40;18.80;;;9.73;;
19507;SDS011;40157;42.566;27.526;2023-02-28T08:46:41;21.27;;;10.10;;
19507;SDS011;40157;42.566;27.526;2023-02-28T08:48:41;20.97;;;9.97;;
19507;SDS011;40157;42.566;27.526;2023-02-28T08:50:42;21.30;;;9.50;;
19507;SDS011;40157;42.566;27.526;2023-02-28T08:52:43;16.83;;;8.90;;
19507;SDS011;40157;42.566;27.526;2023-02-28T08:54:44;16.90;;;8.70;;
19507;SDS011;40157;42.566;27.526;2023-02-28T08:56:45;16.40;;;8.20;;
19507;SDS011;40157;42.566;27.526;2023-02-28T08:58:47;19.27;;;9.93;;
19507;SDS011;40157;42.566;27.526;2023-02-28T09:00:49;19.40;;;9.93;;
19507;SDS011;40157;42.566;27.526;2023-02-28T09:02:50;16.63;;;8.67;;
19507;SDS011;40157;42.566;27.526;2023-02-28T09:04:51;15.47;;;8.40;;
19507;SDS011;40157;42.566;27.526;2023-02-28T09:06:52;24.40;;;11.03;;
19507;SDS011;40157;42.566;27.526;2023-02-28T09:08:52;22.47;;;9.63;;
19507;SDS011;40157;42.566;27.526;2023-02-28T09:10:53;18.73;;;9.07;;
19507;SDS011;40157;42.566;27.526;2023-02-28T09:12:54;18.17;;;8.90;;
19507;SDS011;40157;42.566;27.526;2023-02-28T09:14:55;16.73;;;8.57;;
19507;SDS011;40157;42.566;27.526;2023-02-28T09:16:55;17.10;;;8.97;;
19507;SDS011;40157;42.566;27.526;2023-02-28T09:18:56;16.73;;;8.50;;
19507;SDS011;40157;42.566;27.526;2023-02-28T09:20:56;19.17;;;8.70;;
19507;SDS011;40157;42.566;27.526;2023-02-28T09:22:57;21.80;;;9.00;;
19507;SDS011;40157;42.566;27.526;2023-02-28T09:24:58;17.97;;;8.27;;
19507;SDS011;40157;42.566;27.526;2023-02-28T09:26:58;15.40;;;8.20;;
19507;SDS011;40157;42.566;27.526;2023-02-28T09:28:59;21.73;;;9.80;;
19507;SDS011;40157;42.566;27.526;2023-02-28T09:31:00;25.43;;;11.77;;
19507;SDS011;40157;42.566;27.526;2023-02-28T09:33:01;22.43;;;11.27;;
19507;SDS011;40157;42.566;27.526;2023-02-28T09:35:01;18.27;;;9.13;;
19507;SDS011;40157;42.566;27.526;2023-02-28T09:37:02;23.33;;;10.03;;
19507;SDS011;40157;42.566;27.526;2023-02-28T09:39:02;18.73;;;9.20;;
19507;SDS011;40157;42.566;27.526;2023-02-28T09:41:15;24.43;;;9.87;;
19507;SDS011;40157;42.566;27.526;2023-02-28T09:43:20;20.57;;;9.50;;
19507;SDS011;40157;42.566;27.526;2023-02-28T09:45:33;19.33;;;9.47;;
19507;SDS011;40157;42.566;27.526;2023-02-28T09:47:41;18.93;;;7.67;;
19507;SDS011;40157;42.566;27.526;2023-02-28T09:49:45;16.23;;;7.27;;
19507;SDS011;40157;42.566;27.526;2023-02-28T09:54:05;14.97;;;6.83;;
19507;SDS011;40157;42.566;27.526;2023-02-28T09:56:09;10.80;;;5.70;;
19507;SDS011;40157;42.566;27.526;2023-02-28T09:58:20;11.43;;;5.93;;
19507;SDS011;40157;42.566;27.526;2023-02-28T10:05:31;10.03;;;5.23;;
19507;SDS011;40157;42.566;27.526;2023-02-28T10:10:07;13.93;;;5.43;;
19507;SDS011;40157;42.566;27.526;2023-02-28T10:12:19;11.10;;;5.50;;
19507;SDS011;40157;42.566;27.526;2023-02-28T10:14:24;9.80;;;4.10;;
19507;SDS011;40157;42.566;27.526;2023-02-28T10:16:33;7.50;;;4.13;;
19507;SDS011;40157;42.566;27.526;2023-02-28T10:18:57;9.97;;;5.47;;
19507;SDS011;40157;42.566;27.526;2023-02-28T10:21:00;9.83;;;5.17;;
19507;SDS011;40157;42.566;27.526;2023-02-28T10:23:13;9.60;;;4.37;;
19507;SDS011;40157;42.566;27.526;2023-02-28T10:25:21;9.50;;;4.80;;
19507;SDS011;40157;42.566;27.526;2023-02-28T10:27:25;8.40;;;4.60;;
19507;SDS011;40157;42.566;27.526;2023-02-28T10:29:29;9.47;;;5.30;;
19507;SDS011;40157;42.566;27.526;2023-02-28T10:31:33;10.03;;;5.20;;
19507;SDS011;40157;42.566;27.526;2023-02-28T10:33:34;11.10;;;4.80;;
19507;SDS011;40157;42.566;27.526;2023-02-28T10:35:35;12.70;;;5.20;;
19507;SDS011;40157;42.566;27.526;2023-02-28T10:37:39;10.43;;;5.23;;
19507;SDS011;40157;42.566;27.526;2023-02-28T10:39:42;12.33;;;5.40;;
19507;SDS011;40157;42.566;27.526;2023-02-28T10:41:45;12.03;;;5.10;;
19507;SDS011;40157;42.566;27.526;2023-02-28T10:43:46;10.00;;;5.40;;
19507;SDS011;40157;42.566;27.526;2023-02-28T10:45:56;11.93;;;5.03;;
19507;SDS011;40157;42.566;27.526;2023-02-28T10:48:05;9.93;;;5.00;;
19507;SDS011;40157;42.566;27.526;2023-02-28T10:50:34;13.00;;;5.07;;
19507;SDS011;40157;42.566;27.526;2023-02-28T10:52:42;12.20;;;5.17;;
19507;SDS011;40157;42.566;27.526;2023-02-28T10:54:42;9.43;;;4.83;;
19507;SDS011;40157;42.566;27.526;2023-02-28T10:56:42;11.33;;;5.73;;
19507;SDS011;40157;42.566;27.526;2023-02-28T10:59:03;13.37;;;5.20;;
19507;SDS011;40157;42.566;27.526;2023-02-28T11:03:32;11.93;;;5.93;;
19507;SDS011;40157;42.566;27.526;2023-02-28T11:05:35;12.53;;;6.03;;
19507;SDS011;40157;42.566;27.526;2023-02-28T11:07:36;15.73;;;5.27;;
19507;SDS011;40157;42.566;27.526;2023-02-28T11:09:39;11.93;;;6.13;;
19507;SDS011;40157;42.566;27.526;2023-02-28T11:11:41;11.00;;;5.33;;
19507;SDS011;40157;42.566;27.526;2023-02-28T11:13:44;11.50;;;6.03;;
19507;SDS011;40157;42.566;27.526;2023-02-28T11:15:53;10.83;;;5.47;;
19507;SDS011;40157;42.566;27.526;2023-02-28T11:18:05;10.83;;;5.90;;
19507;SDS011;40157;42.566;27.526;2023-02-28T11:20:21;12.83;;;6.20;;
19507;SDS011;40157;42.566;27.526;2023-02-28T11:22:27;13.77;;;6.47;;
19507;SDS011;40157;42.566;27.526;2023-02-28T11:24:33;13.10;;;6.30;;
19507;SDS011;40157;42.566;27.526;2023-02-28T11:26:38;10.97;;;5.70;;
19507;SDS011;40157;42.566;27.526;2023-02-28T11:28:43;12.23;;;5.83;;
19507;SDS011;40157;42.566;27.526;2023-02-28T11:30:44;14.63;;;6.33;;
19507;SDS011;40157;42.566;27.526;2023-02-28T11:32:49;13.70;;;6.10;;
19507;SDS011;40157;42.566;27.526;2023-02-28T11:35:00;11.63;;;5.47;;
19507;SDS011;40157;42.566;27.526;2023-02-28T11:37:18;12.43;;;5.83;;
19507;SDS011;40157;42.566;27.526;2023-02-28T11:39:19;10.27;;;5.50;;
19507;SDS011;40157;42.566;27.526;2023-02-28T11:44:17;15.40;;;5.80;;
19507;SDS011;40157;42.566;27.526;2023-02-28T11:46:36;10.77;;;5.90;;
19507;SDS011;40157;42.566;27.526;2023-02-28T12:07:04;17.17;;;6.70;;
19507;SDS011;40157;42.566;27.526;2023-02-28T12:09:13;11.00;;;6.03;;
19507;SDS011;40157;42.566;27.526;2023-02-28T12:14:06;11.03;;;5.67;;
19507;SDS011;40157;42.566;27.526;2023-02-28T12:16:17;13.87;;;6.50;;
19507;SDS011;40157;42.566;27.526;2023-02-28T12:21:18;12.70;;;6.60;;
19507;SDS011;40157;42.566;27.526;2023-02-28T12:25:48;10.57;;;5.83;;
19507;SDS011;40157;42.566;27.526;2023-02-28T12:28:11;17.77;;;6.43;;
19507;SDS011;40157;42.566;27.526;2023-02-28T12:30:16;17.33;;;6.40;;
19507;SDS011;40157;42.566;27.526;2023-02-28T12:32:23;14.43;;;5.77;;
19507;SDS011;40157;42.566;27.526;2023-02-28T12:34:31;14.87;;;6.53;;
19507;SDS011;40157;42.566;27.526;2023-02-28T12:36:36;13.40;;;6.37;;
19507;SDS011;40157;42.566;27.526;2023-02-28T12:38:39;11.33;;;5.90;;
19507;SDS011;40157;42.566;27.526;2023-02-28T12:40:45;18.53;;;6.33;;
19507;SDS011;40157;42.566;27.526;2023-02-28T12:42:51;12.33;;;5.43;;
19507;SDS011;40157;42.566;27.526;2023-02-28T12:44:57;12.73;;;6.10;;
19507;SDS011;40157;42.566;27.526;2023-02-28T12:47:04;11.07;;;5.40;;
19507;SDS011;40157;42.566;27.526;2023-02-28T12:51:32;7.30;;;4.70;;
19507;SDS011;40157;42.566;27.526;2023-02-28T12:58:17;9.40;;;5.47;;
19507;SDS011;40157;42.566;27.526;2023-02-28T13:00:29;11.87;;;5.13;;
19507;SDS011;40157;42.566;27.526;2023-02-28T13:09:54;12.87;;;5.33;;
19507;SDS011;40157;42.566;27.526;2023-02-28T13:11:56;11.83;;;5.50;;
19507;SDS011;40157;42.566;27.526;2023-02-28T13:13:59;13.87;;;5.27;;
19507;SDS011;40157;42.566;27.526;2023-02-28T13:16:05;12.10;;;4.90;;
19507;SDS011;40157;42.566;27.526;2023-02-28T13:18:20;11.73;;;5.80;;
19507;SDS011;40157;42.566;27.526;2023-02-28T13:20:47;16.17;;;6.03;;
19507;SDS011;40157;42.566;27.526;2023-02-28T13:22:48;11.03;;;5.33;;
19507;SDS011;40157;42.566;27.526;2023-02-28T13:24:53;12.67;;;5.37;;
19507;SDS011;40157;42.566;27.526;2023-02-28T13:29:01;12.57;;;5.33;;
19507;SDS011;40157;42.566;27.526;2023-02-28T13:31:04;13.37;;;5.03;;
19507;SDS011;40157;42.566;27.526;2023-02-28T13:35:35;10.77;;;5.03;;
19507;SDS011;40157;42.566;27.526;2023-02-28T13:37:41;9.97;;;5.13;;
19507;SDS011;40157;42.566;27.526;2023-02-28T13:41:44;12.97;;;5.23;;